Time;durP1;ratioP1;P1;durP2;ratioP2;P2;SDS_P1;SDS_P2;PMS_P1;PMS_P2;Temp;Humidity;BMP_temperature;BMP_pressure;BME280_temperature;BME280_humidity;BME280_pressure;Samples;Min_cycle;Max_cycle;Signal;HPM_P1;HPM_P2
2023/03/31 00:00:10;;;;;;;13.05;3.40;;;;;;;10.64;100.00;98753.78;5010375;28;20069;-91
2023/03/31 00:02:40;;;;;;;12.73;3.70;;;;;;;10.30;100.00;98710.78;5011098;28;20072;-90
2023/03/31 00:05:08;;;;;;;15.73;3.80;;;;;;;10.57;100.00;98768.25;4997731;28;20104;-89
2023/03/31 00:07:38;;;;;;;14.90;3.40;;;;;;;10.39;100.00;98750.28;5002017;28;20054;-90
2023/03/31 00:10:06;;;;;;;16.45;3.88;;;;;;;10.11;100.00;98698.13;5009769;28;20042;-90
2023/03/31 00:12:44;;;;;;;12.48;3.40;;;;;;;10.46;100.00;98758.53;5013071;28;20530;-90
2023/03/31 00:15:11;;;;;;;11.63;2.80;;;;;;;10.34;100.00;98735.81;5012036;28;20494;-90
2023/03/31 00:17:38;;;;;;;10.20;2.95;;;;;;;10.35;100.00;98729.66;5016676;28;20104;-89
2023/03/31 00:20:11;;;;;;;15.10;3.65;;;;;;;10.50;100.00;98754.78;5009703;28;20070;-89
2023/03/31 00:22:41;;;;;;;11.15;3.20;;;;;;;10.33;100.00;98710.63;4993915;28;20153;-89
2023/03/31 00:25:09;;;;;;;12.50;3.63;;;;;;;10.34;100.00;98722.72;5016004;28;20132;-88
2023/03/31 00:27:36;;;;;;;17.83;4.15;;;;;;;10.14;100.00;98709.22;5013830;28;20148;-89
2023/03/31 00:30:04;;;;;;;19.35;3.80;;;;;;;10.50;100.00;98759.16;5003624;28;20447;-89
2023/03/31 00:32:32;;;;;;;12.48;3.00;;;;;;;10.08;100.00;98694.78;5009746;28;20468;-89
2023/03/31 00:35:01;;;;;;;14.50;3.42;;;;;;;10.35;100.00;98721.81;5006242;28;20049;-88
2023/03/31 00:37:28;;;;;;;20.45;4.65;;;;;;;10.37;100.00;98731.22;5014308;28;20053;-89
2023/03/31 00:39:55;;;;;;;15.70;4.70;;;;;;;10.32;100.00;98730.69;5004605;28;20117;-90
2023/03/31 00:42:22;;;;;;;15.25;4.85;;;;;;;10.16;100.00;98712.56;5009768;28;20115;-90
2023/03/31 00:45:14;;;;;;;20.10;4.40;;;;;;;10.45;100.00;98756.88;5006618;28;20116;-90
2023/03/31 00:47:50;;;;;;;21.15;5.80;;;;;;;10.01;100.00;98711.00;5010369;28;20056;-90
2023/03/31 00:50:21;;;;;;;22.55;6.35;;;;;;;10.35;100.00;98747.97;5008891;28;20101;-91
2023/03/31 00:52:55;;;;;;;24.58;5.90;;;;;;;9.97;100.00;98676.38;5010238;28;20054;-90
2023/03/31 00:55:29;;;;;;;24.33;6.50;;;;;;;10.32;100.00;98750.78;5002210;28;20057;-90
2023/03/31 00:57:57;;;;;;;25.40;4.22;;;;;;;9.97;100.00;98691.22;4992815;28;20464;-90
2023/03/31 01:00:23;;;;;;;24.70;5.15;;;;;;;10.11;100.00;98703.34;5017763;28;20050;-90
2023/03/31 01:02:57;;;;;;;18.63;3.85;;;;;;;9.98;100.00;98682.44;4993174;28;20081;-91
2023/03/31 01:05:56;;;;;;;22.08;6.28;;;;;;;10.51;100.00;98737.28;5011977;28;20080;-89
2023/03/31 01:08:26;;;;;;;14.32;3.95;;;;;;;10.56;100.00;98741.25;4998349;28;20483;-90
2023/03/31 01:10:56;;;;;;;17.60;4.78;;;;;;;10.49;100.00;98732.16;5021109;28;20045;-90
2023/03/31 01:13:25;;;;;;;19.42;4.68;;;;;;;10.31;100.00;98704.63;5001234;28;20781;-90
2023/03/31 01:15:52;;;;;;;17.58;4.05;;;;;;;10.11;100.00;98662.38;5012078;28;20448;-90
2023/03/31 01:18:21;;;;;;;17.27;4.78;;;;;;;10.59;100.00;98727.97;5013112;28;20484;-89
2023/03/31 01:21:13;;;;;;;11.43;2.70;;;;;;;10.67;100.00;98723.97;5024154;28;20404;-89
2023/03/31 01:24:11;;;;;;;19.08;3.83;;;;;;;10.59;100.00;98730.56;4993018;28;20109;-89
2023/03/31 01:26:43;;;;;;;14.77;3.33;;;;;;;10.59;100.00;98720.09;5013107;28;20069;-89
2023/03/31 01:29:19;;;;;;;20.52;4.28;;;;;;;10.53;100.00;98724.94;4998019;28;20116;-90
2023/03/31 01:32:15;;;;;;;19.83;3.97;;;;;;;10.53;100.00;98719.69;4996930;28;20061;-90
2023/03/31 01:35:13;;;;;;;10.23;3.08;;;;;;;10.31;100.00;98673.25;4993275;28;20050;-91
2023/03/31 01:37:56;;;;;;;13.63;3.45;;;;;;;10.54;100.00;98724.00;5024063;28;20053;-89
2023/03/31 01:41:00;;;;;;;16.15;3.00;;;;;;;10.61;100.00;98714.78;5005781;28;20043;-91
2023/03/31 01:43:55;;;;;;;10.02;2.95;;;;;;;10.64;100.00;98704.06;5008495;28;20452;-91
2023/03/31 01:46:28;;;;;;;15.85;3.30;;;;;;;10.52;100.00;98702.34;4992457;28;20054;-90
2023/03/31 01:49:13;;;;;;;15.27;3.53;;;;;;;10.50;100.00;98702.44;5004689;28;20050;-90
2023/03/31 01:51:46;;;;;;;15.15;3.78;;;;;;;10.49;100.00;98695.53;5019324;28;20054;-91
2023/03/31 01:54:38;;;;;;;18.20;3.50;;;;;;;10.52;100.00;98697.09;4997402;28;20062;-90
2023/03/31 01:57:16;;;;;;;18.67;3.72;;;;;;;10.34;100.00;98673.91;5002741;28;20053;-90
2023/03/31 02:00:02;;;;;;;14.70;3.95;;;;;;;10.21;100.00;98652.09;5025311;28;20042;-90
2023/03/31 02:02:37;;;;;;;14.48;3.58;;;;;;;10.22;100.00;98653.78;5000222;28;20538;-90
2023/03/31 02:05:19;;;;;;;15.27;3.70;;;;;;;10.25;100.00;98646.56;5010307;28;20069;-90
2023/03/31 02:07:51;;;;;;;13.77;3.65;;;;;;;10.26;100.00;98655.22;5005555;28;20104;-90
2023/03/31 02:10:20;;;;;;;17.17;3.38;;;;;;;10.50;100.00;98688.50;5021101;28;20050;-90
2023/03/31 02:12:48;;;;;;;16.25;3.30;;;;;;;10.27;100.00;98664.78;5016081;28;20047;-90
2023/03/31 02:15:23;;;;;;;11.80;3.28;;;;;;;10.17;100.00;98645.41;4993638;28;20074;-89
2023/03/31 02:17:55;;;;;;;16.30;4.07;;;;;;;10.16;100.00;98639.34;5027922;28;20198;-89
2023/03/31 02:20:23;;;;;;;8.70;2.63;;;;;;;10.24;100.00;98631.81;5007875;28;20050;-88
2023/03/31 02:22:54;;;;;;;15.13;3.13;;;;;;;10.19;100.00;98646.97;5002268;28;20042;-90
2023/03/31 02:25:26;;;;;;;10.18;2.35;;;;;;;10.04;100.00;98622.72;4992464;28;20058;-89
2023/03/31 02:27:59;;;;;;;16.30;3.25;;;;;;;10.35;100.00;98665.09;5008143;28;20058;-90
2023/03/31 02:30:30;;;;;;;;;;;;;;;10.46;100.00;98680.03;5010566;28;20678;-90
2023/03/31 02:32:58;;;;;;;10.05;2.92;;;;;;;10.16;100.00;98641.94;5006804;28;19921;-89
2023/03/31 02:35:25;;;;;;;14.55;3.10;;;;;;;9.93;100.00;98627.03;5009852;28;20049;-90
2023/03/31 02:37:52;;;;;;;14.13;3.65;;;;;;;10.21;100.00;98668.63;4994889;28;20469;-88
2023/03/31 02:40:21;;;;;;;10.35;2.90;;;;;;;10.10;100.00;98647.63;5005027;28;20439;-89
2023/03/31 02:42:48;;;;;;;10.82;2.38;;;;;;;9.95;100.00;98614.66;5030441;28;20097;-90
2023/03/31 02:45:33;;;;;;;10.25;2.55;;;;;;;10.16;100.00;98659.44;5014775;28;20455;-89
2023/03/31 02:48:00;;;;;;;10.68;2.63;;;;;;;10.05;100.00;98660.16;5014838;28;20045;-90
2023/03/31 02:50:34;;;;;;;14.73;3.35;;;;;;;9.77;100.00;98628.06;5008091;28;20046;-90
2023/03/31 02:53:28;;;;;;;14.82;2.78;;;;;;;9.49;100.00;98589.88;4996070;28;20109;-90
2023/03/31 02:56:18;;;;;;;11.93;3.13;;;;;;;9.74;100.00;98659.66;5000962;28;20500;-90
2023/03/31 02:59:15;;;;;;;13.30;3.35;;;;;;;9.61;100.00;98664.84;4987524;28;20104;-89
2023/03/31 03:01:49;;;;;;;13.50;2.92;;;;;;;9.46;100.00;98663.25;5003641;28;20089;-90
2023/03/31 03:04:57;;;;;;;11.35;2.70;;;;;;;9.46;100.00;98658.84;5008861;28;20534;-89
2023/03/31 03:07:36;;;;;;;13.00;3.35;;;;;;;9.05;100.00;98588.47;5007354;28;20050;-90
2023/03/31 03:10:11;;;;;;;11.52;2.72;;;;;;;9.50;100.00;98657.72;5006159;28;20530;-89
2023/03/31 03:12:38;;;;;;;16.02;4.13;;;;;;;9.35;100.00;98658.75;5018625;28;20132;-89
2023/03/31 03:15:08;;;;;;;16.20;3.67;;;;;;;9.40;100.00;98661.03;5027541;28;20092;-89
2023/03/31 03:17:41;;;;;;;19.25;5.57;;;;;;;9.28;100.00;98654.84;5011565;28;20057;-89
2023/03/31 03:20:10;;;;;;;29.73;8.65;;;;;;;9.32;100.00;98653.72;5006707;28;20072;-89
2023/03/31 03:22:38;;;;;;;26.30;7.35;;;;;;;8.97;100.00;98603.81;5004518;28;20053;-90
2023/03/31 03:25:11;;;;;;;35.22;8.73;;;;;;;8.96;100.00;98616.03;5014357;28;20483;-90
2023/03/31 03:27:39;;;;;;;32.85;8.25;;;;;;;9.12;100.00;98631.53;5006694;28;20471;-89
2023/03/31 03:30:08;;;;;;;44.03;9.93;;;;;;;8.85;100.00;98629.75;5013292;28;20046;-89
2023/03/31 03:32:35;;;;;;;35.45;8.48;;;;;;;8.46;100.00;98565.28;5010197;28;20464;-89
2023/03/31 03:35:03;;;;;;;30.40;8.25;;;;;;;8.96;100.00;98625.59;5013409;28;20487;-89
2023/03/31 03:37:30;;;;;;;29.27;7.28;;;;;;;8.83;100.00;98612.50;5014592;28;20053;-89
2023/03/31 03:39:57;;;;;;;30.77;6.88;;;;;;;8.89;100.00;98622.56;5012041;28;20530;-89
2023/03/31 03:42:24;;;;;;;27.52;7.68;;;;;;;8.51;100.00;98574.50;5007587;28;20452;-90
2023/03/31 03:44:51;;;;;;;31.20;8.02;;;;;;;8.57;100.00;98583.72;5004494;28;20463;-91
2023/03/31 03:47:17;;;;;;;33.45;7.55;;;;;;;8.48;100.00;98563.44;5001328;28;20485;-89
2023/03/31 03:49:44;;;;;;;28.33;6.70;;;;;;;8.46;100.00;98544.44;5030285;28;20391;-89
2023/03/31 03:52:11;;;;;;;22.80;6.30;;;;;;;8.62;100.00;98568.59;5006414;28;20058;-89
2023/03/31 03:54:37;;;;;;;23.50;6.30;;;;;;;8.67;100.00;98582.19;5000961;28;20642;-89
2023/03/31 03:57:04;;;;;;;20.73;6.05;;;;;;;8.83;100.00;98615.13;5013197;28;20107;-88
2023/03/31 03:59:32;;;;;;;25.85;8.15;;;;;;;8.96;100.00;98616.03;5014235;28;20141;-88
2023/03/31 04:01:59;;;;;;;26.50;6.75;;;;;;;8.93;100.00;98609.22;5000180;28;20480;-89
2023/03/31 04:04:25;;;;;;;26.40;7.30;;;;;;;8.70;100.00;98575.94;5010213;28;20053;-89
2023/03/31 04:06:52;;;;;;;17.95;5.43;;;;;;;8.69;100.00;98564.69;5012873;28;20049;-89
2023/03/31 04:09:19;;;;;;;19.50;5.43;;;;;;;8.95;100.00;98603.06;5012614;28;20054;-89
2023/03/31 04:11:45;;;;;;;22.58;6.45;;;;;;;8.88;100.00;98602.63;5006868;28;20049;-88
2023/03/31 04:14:12;;;;;;;17.33;5.75;;;;;;;8.87;100.00;98614.84;5008748;28;20058;-87
2023/03/31 04:16:39;;;;;;;16.00;5.05;;;;;;;8.55;100.00;98564.69;4994129;28;20046;-88
2023/03/31 04:19:07;;;;;;;16.38;5.05;;;;;;;8.79;100.00;98569.28;5008842;28;20053;-89
2023/03/31 04:21:33;;;;;;;19.83;5.40;;;;;;;8.86;100.00;98579.22;5004022;28;20468;-89
2023/03/31 04:24:03;;;;;;;12.60;4.28;;;;;;;8.78;100.00;98568.44;5016709;28;20046;-88
2023/03/31 04:26:41;;;;;;;11.70;3.70;;;;;;;8.93;100.00;98593.56;5027993;28;20413;-88
2023/03/31 04:29:11;;;;;;;16.77;4.78;;;;;;;9.03;100.00;98606.84;4993754;28;20126;-88
2023/03/31 04:31:41;;;;;;;16.45;5.10;;;;;;;8.86;100.00;98578.41;4996738;28;20061;-89
2023/03/31 04:34:13;;;;;;;27.98;6.20;;;;;;;9.17;100.00;98603.34;5009249;28;20389;-88
2023/03/31 04:36:46;;;;;;;19.08;5.40;;;;;;;9.02;100.00;98599.94;5006734;28;20455;-89
2023/03/31 04:39:25;;;;;;;19.70;4.78;;;;;;;9.04;100.00;98585.00;5012780;28;20373;-89
2023/03/31 04:41:52;;;;;;;16.17;4.35;;;;;;;8.92;100.00;98560.56;4999914;28;20101;-89
2023/03/31 04:44:19;;;;;;;19.05;4.97;;;;;;;8.95;100.00;98561.31;5001168;28;20361;-89
2023/03/31 04:46:46;;;;;;;22.77;6.47;;;;;;;8.84;100.00;98534.13;4999149;28;20050;-88
2023/03/31 04:49:13;;;;;;;22.00;5.82;;;;;;;9.22;100.00;98603.03;5009440;28;20192;-89
2023/03/31 04:51:40;;;;;;;27.77;7.10;;;;;;;8.82;100.00;98530.78;4999951;28;20056;-88
2023/03/31 04:54:06;;;;;;;32.20;7.28;;;;;;;9.08;100.00;98565.63;5013119;28;20068;-89
2023/03/31 04:56:33;;;;;;;24.33;5.72;;;;;;;9.14;100.00;98577.44;5013631;28;20427;-88
2023/03/31 04:59:00;;;;;;;20.15;4.47;;;;;;;9.04;100.00;98551.09;5028929;28;20053;-90
2023/03/31 05:01:26;;;;;;;19.00;5.13;;;;;;;9.07;100.00;98561.31;5004623;28;20050;-89
2023/03/31 05:03:53;;;;;;;27.55;6.30;;;;;;;9.17;100.00;98572.00;5022570;28;20056;-89
2023/03/31 05:06:20;;;;;;;26.77;6.43;;;;;;;9.19;100.00;98582.31;5017817;28;20095;-89
2023/03/31 05:08:46;;;;;;;20.60;6.07;;;;;;;9.20;100.00;98571.78;5004980;28;20053;-89
2023/03/31 05:11:13;;;;;;;20.08;5.03;;;;;;;9.52;100.00;98618.44;5005967;28;20045;-89
2023/03/31 05:13:40;;;;;;;25.90;6.50;;;;;;;9.30;100.00;98582.47;5008827;28;20046;-90
2023/03/31 05:16:13;;;;;;;20.48;5.40;;;;;;;9.46;100.00;98606.63;5009669;28;20089;-91
2023/03/31 05:18:41;;;;;;;23.10;5.25;;;;;;;9.57;100.00;98623.34;5024426;28;20112;-88
2023/03/31 05:21:09;;;;;;;15.40;3.70;;;;;;;9.49;100.00;98618.63;5009894;28;20476;-87
2023/03/31 05:23:36;;;;;;;15.45;3.90;;;;;;;9.15;100.00;98557.38;4993565;28;20054;-88
2023/03/31 05:26:03;;;;;;;24.83;6.50;;;;;;;9.34;100.00;98588.31;5003566;28;20049;-89
2023/03/31 05:28:30;;;;;;;19.55;5.78;;;;;;;9.25;100.00;98571.50;5012331;28;20049;-88
2023/03/31 05:31:00;;;;;;;14.90;3.67;;;;;;;9.68;100.00;98628.69;5011837;28;20052;-92
2023/03/31 05:33:28;;;;;;;10.52;3.55;;;;;;;9.24;100.00;98564.59;5012669;28;20060;-88
2023/03/31 05:35:55;;;;;;;12.73;4.45;;;;;;;9.56;100.00;98629.50;5010271;28;20053;-88
2023/03/31 05:38:22;;;;;;;16.20;3.88;;;;;;;9.30;100.00;98598.97;5007270;28;20081;-88
2023/03/31 05:40:48;;;;;;;10.88;3.83;;;;;;;9.23;100.00;98568.16;5009121;28;20049;-91
2023/03/31 05:43:15;;;;;;;10.50;3.20;;;;;;;9.36;100.00;98597.72;5006151;28;20042;-89
2023/03/31 05:45:42;;;;;;;11.77;3.40;;;;;;;9.61;100.00;98633.47;5001423;28;20100;-90
2023/03/31 05:48:09;;;;;;;14.95;4.10;;;;;;;9.32;100.00;98584.03;5008947;28;20058;-89
2023/03/31 05:50:35;;;;;;;16.13;4.88;;;;;;;9.45;100.00;98601.50;4993292;28;20054;-88
2023/03/31 05:53:02;;;;;;;13.35;2.92;;;;;;;9.69;100.00;98644.25;5010373;28;20096;-89
2023/03/31 05:55:29;;;;;;;10.75;3.08;;;;;;;9.51;100.00;98606.31;5009547;28;20054;-88
2023/03/31 05:57:59;;;;;;;8.65;2.72;;;;;;;9.65;100.00;98615.81;5010699;28;20046;-87
2023/03/31 06:00:26;;;;;;;12.20;3.40;;;;;;;9.61;100.00;98601.28;5001832;28;20679;-88
2023/03/31 06:02:54;;;;;;;9.60;2.90;;;;;;;9.70;100.00;98626.78;5003186;28;20046;-87
2023/03/31 06:05:25;;;;;;;16.35;4.20;;;;;;;9.50;100.00;98615.91;5014586;28;20496;-88
2023/03/31 06:07:52;;;;;;;14.85;3.88;;;;;;;9.84;100.00;98665.06;5013826;28;20384;-88
2023/03/31 06:10:19;;;;;;;15.23;4.38;;;;;;;9.41;100.00;98593.03;5013083;28;20045;-87
2023/03/31 06:12:46;;;;;;;9.55;2.78;;;;;;;9.50;100.00;98588.97;5020437;28;20054;-88
2023/03/31 06:15:13;;;;;;;17.88;4.15;;;;;;;9.88;100.00;98663.94;5001373;28;20050;-87
2023/03/31 06:17:39;;;;;;;15.00;3.58;;;;;;;9.73;100.00;98631.00;5010012;28;20064;-87
2023/03/31 06:20:07;;;;;;;14.38;4.00;;;;;;;9.49;100.00;98597.72;5011026;28;20054;-87
2023/03/31 06:22:52;;;;;;;14.65;3.13;;;;;;;9.58;100.00;98614.56;5012493;28;20488;-87
2023/03/31 06:25:19;;;;;;;13.00;3.65;;;;;;;9.61;100.00;98616.97;5009357;28;20046;-88
2023/03/31 06:27:45;;;;;;;17.88;3.22;;;;;;;9.49;100.00;98619.47;5013622;28;20053;-86
2023/03/31 06:30:12;;;;;;;14.65;3.55;;;;;;;9.42;100.00;98601.69;4998548;28;20046;-87
2023/03/31 06:32:39;;;;;;;15.13;4.03;;;;;;;9.45;100.00;98602.31;5019924;28;20111;-86
2023/03/31 06:35:06;;;;;;;16.95;3.67;;;;;;;9.88;100.00;98679.63;5009754;28;20050;-87
2023/03/31 06:37:33;;;;;;;10.27;3.67;;;;;;;9.74;100.00;98661.41;5031097;28;20069;-88
2023/03/31 06:39:59;;;;;;;14.18;3.42;;;;;;;9.67;100.00;98661.00;5014386;28;20699;-88
2023/03/31 06:42:26;;;;;;;11.93;4.00;;;;;;;9.73;100.00;98675.41;5001439;28;20475;-86
2023/03/31 06:44:54;;;;;;;10.18;3.05;;;;;;;9.60;100.00;98647.50;5009664;28;20046;-87
2023/03/31 06:47:21;;;;;;;9.85;3.35;;;;;;;9.58;100.00;98659.84;5001694;28;20053;-87
2023/03/31 06:49:48;;;;;;;10.50;2.90;;;;;;;9.51;100.00;98642.91;5003629;28;20054;-87
2023/03/31 06:52:15;;;;;;;8.88;2.55;;;;;;;9.60;100.00;98657.94;5026116;28;20055;-87
2023/03/31 06:54:41;;;;;;;11.02;3.40;;;;;;;9.65;100.00;98675.91;5021821;28;20105;-87
2023/03/31 06:57:08;;;;;;;14.70;3.50;;;;;;;9.63;100.00;98673.44;5022714;28;20054;-87
2023/03/31 06:59:35;;;;;;;11.48;3.10;;;;;;;9.61;100.00;98664.00;5007502;28;20058;-87
2023/03/31 07:02:02;;;;;;;16.60;3.78;;;;;;;9.73;100.00;98691.94;5006267;28;20046;-87
2023/03/31 07:04:29;;;;;;;15.23;3.38;;;;;;;9.58;100.00;98658.97;5009555;28;20077;-87
2023/03/31 07:06:58;;;;;;;11.70;2.75;;;;;;;9.73;100.00;98672.81;5007742;28;20049;-88
2023/03/31 07:09:24;;;;;;;15.60;3.28;;;;;;;9.85;100.00;98704.19;5013943;28;20053;-88
2023/03/31 07:11:51;;;;;;;14.85;3.35;;;;;;;9.89;100.00;98720.50;5013091;28;20053;-88
2023/03/31 07:14:21;;;;;;;16.85;3.47;;;;;;;9.85;100.00;98712.03;4996463;28;20073;-87
2023/03/31 07:16:49;;;;;;;15.77;3.88;;;;;;;9.74;100.00;98690.16;5015215;28;20100;-86
2023/03/31 07:19:16;;;;;;;15.13;3.15;;;;;;;9.42;100.00;98654.78;5013699;28;20064;-87
2023/03/31 07:21:43;;;;;;;6.90;2.38;;;;;;;9.44;100.00;98675.59;5012579;28;20050;-87
2023/03/31 07:24:09;;;;;;;19.25;4.38;;;;;;;9.43;100.00;98687.78;5011770;28;20477;-87
2023/03/31 07:26:36;;;;;;;17.40;5.10;;;;;;;9.71;100.00;98716.50;5025352;28;20054;-87
2023/03/31 07:29:03;;;;;;;15.13;4.32;;;;;;;9.43;100.00;98695.63;5006736;28;20104;-88
2023/03/31 07:31:30;;;;;;;20.10;6.13;;;;;;;9.42;100.00;98716.63;5022481;28;20128;-87
2023/03/31 07:33:56;;;;;;;21.83;5.15;;;;;;;9.43;100.00;98721.75;5000963;28;20385;-87
2023/03/31 07:36:23;;;;;;;14.05;4.80;;;;;;;9.20;100.00;98699.72;5013334;28;20050;-87
2023/03/31 07:38:50;;;;;;;24.67;7.55;;;;;;;9.20;100.00;98722.41;5014021;28;20054;-87
2023/03/31 07:41:19;;;;;;;15.32;4.65;;;;;;;9.47;100.00;98756.34;5010196;28;20061;-87
2023/03/31 07:43:46;;;;;;;24.80;6.38;;;;;;;9.28;100.00;98733.22;5010861;28;20096;-87
2023/03/31 07:46:15;;;;;;;19.52;4.68;;;;;;;9.45;100.00;98760.84;5018607;28;20045;-87
2023/03/31 07:48:42;;;;;;;27.10;8.25;;;;;;;9.48;100.00;98766.69;5012766;28;20100;-86
2023/03/31 07:51:09;;;;;;;29.95;6.85;;;;;;;8.72;100.00;98701.91;5005455;28;20046;-86
2023/03/31 07:53:36;;;;;;;29.70;6.40;;;;;;;8.83;100.00;98714.28;5007062;28;20100;-87
2023/03/31 07:56:02;;;;;;;23.10;5.72;;;;;;;9.06;100.00;98750.22;5018515;28;20086;-87
2023/03/31 07:58:30;;;;;;;36.33;6.68;;;;;;;9.06;100.00;98763.25;5029402;28;20045;-86
2023/03/31 08:00:56;;;;;;;21.25;5.47;;;;;;;8.89;100.00;98746.06;5003651;28;20405;-84
2023/03/31 08:03:23;;;;;;;13.82;4.15;;;;;;;8.79;100.00;98759.78;4999576;28;20105;-87
2023/03/31 08:05:51;;;;;;;17.52;4.03;;;;;;;8.99;100.00;98801.13;5008765;28;20100;-85
2023/03/31 08:08:18;;;;;;;11.32;3.63;;;;;;;8.96;100.00;98762.19;5012533;28;20081;-86
2023/03/31 08:10:45;;;;;;;10.57;3.65;;;;;;;8.80;100.00;98759.69;5011103;28;20397;-86
2023/03/31 08:13:11;;;;;;;19.42;4.50;;;;;;;8.69;100.00;98720.34;5020274;28;20046;-86
2023/03/31 08:15:38;;;;;;;12.30;3.22;;;;;;;8.93;100.00;98747.53;5000679;28;20046;-87
2023/03/31 08:18:05;;;;;;;16.50;4.18;;;;;;;8.95;100.00;98742.22;5020618;28;20529;-86
2023/03/31 08:20:32;;;;;;;9.60;3.17;;;;;;;8.93;100.00;98763.19;5008726;28;20052;-86
2023/03/31 08:22:59;;;;;;;16.48;5.18;;;;;;;8.71;100.00;98742.81;5009619;28;20443;-87
2023/03/31 08:25:25;;;;;;;9.30;3.42;;;;;;;8.97;100.00;98787.34;5011973;28;20073;-87
2023/03/31 08:27:52;;;;;;;12.90;3.38;;;;;;;8.89;100.00;98768.72;5027534;28;20104;-85
2023/03/31 08:30:19;;;;;;;8.23;2.97;;;;;;;8.92;100.00;98765.91;5010409;28;20049;-87
2023/03/31 08:32:46;;;;;;;16.80;5.10;;;;;;;8.92;100.00;98782.41;5006314;28;20108;-87
2023/03/31 08:35:13;;;;;;;12.10;3.90;;;;;;;8.54;100.00;98758.69;5011693;28;20045;-87
2023/03/31 08:37:39;;;;;;;16.95;3.80;;;;;;;8.36;100.00;98758.00;5013132;28;20058;-86
2023/03/31 08:40:14;;;;;;;15.38;4.70;;;;;;;8.96;100.00;98823.97;5009480;28;20057;-87
2023/03/31 08:42:49;;;;;;;15.10;4.28;;;;;;;8.59;100.00;98760.97;5011486;28;20049;-87
2023/03/31 08:45:36;;;;;;;11.32;4.68;;;;;;;8.94;100.00;98818.84;5012115;28;20531;-88
2023/03/31 08:48:20;;;;;;;19.80;4.28;;;;;;;8.63;100.00;98776.38;5011660;28;20054;-88
2023/03/31 08:50:54;;;;;;;17.88;4.13;;;;;;;8.79;100.00;98791.94;5007507;28;20046;-88
2023/03/31 08:53:26;;;;;;;17.13;4.70;;;;;;;9.04;100.00;98825.19;5006955;28;20550;-88
2023/03/31 08:55:55;;;;;;;17.80;4.57;;;;;;;8.75;100.00;98806.09;4995953;28;20097;-87
2023/03/31 08:58:31;;;;;;;12.93;4.25;;;;;;;8.88;100.00;98830.50;5011501;28;20546;-88
2023/03/31 09:01:10;;;;;;;16.08;4.25;;;;;;;8.93;100.00;98833.66;5010048;28;20053;-87
2023/03/31 09:03:57;;;;;;;13.80;3.63;;;;;;;8.70;100.00;98795.94;5007930;28;20050;-86
2023/03/31 09:06:46;;;;;;;12.90;3.95;;;;;;;9.12;100.00;98832.56;5012743;28;20575;-86
2023/03/31 09:09:31;;;;;;;11.13;3.58;;;;;;;8.64;100.00;98782.41;5011597;28;20084;-86
2023/03/31 09:12:06;;;;;;;10.05;3.03;;;;;;;8.64;100.00;98780.66;5005377;28;20562;-87
2023/03/31 09:14:33;;;;;;;12.57;2.80;;;;;;;9.01;100.00;98841.06;5009892;28;20596;-86
2023/03/31 09:17:11;;;;;;;9.93;2.40;;;;;;;8.93;100.00;98818.00;5011166;28;20049;-86
2023/03/31 09:19:53;;;;;;;10.00;2.55;;;;;;;8.90;100.00;98806.91;5011327;28;20096;-86
2023/03/31 09:22:25;;;;;;;10.15;3.00;;;;;;;9.29;100.00;98849.78;5007840;28;20073;-87
2023/03/31 09:25:06;;;;;;;9.85;3.15;;;;;;;9.23;100.00;98822.28;5014889;28;20439;-86
2023/03/31 09:27:36;;;;;;;10.57;3.00;;;;;;;9.35;100.00;98844.19;5027555;28;20057;-87
2023/03/31 09:30:11;;;;;;;15.00;3.22;;;;;;;9.30;100.00;98841.00;5011746;28;20085;-88
2023/03/31 09:32:38;;;;;;;10.13;2.78;;;;;;;9.07;100.00;98809.34;5003241;28;20132;-87
2023/03/31 09:35:20;;;;;;;10.55;2.38;;;;;;;9.20;100.00;98856.41;5005573;28;20073;-87
2023/03/31 09:37:48;;;;;;;7.97;1.75;;;;;;;9.03;100.00;98844.41;5010744;28;20073;-88
2023/03/31 09:40:18;;;;;;;12.05;1.95;;;;;;;9.23;100.00;98863.22;5008134;28;20050;-86
2023/03/31 09:42:55;;;;;;;8.35;2.58;;;;;;;9.18;100.00;98871.31;5006487;28;20128;-87
2023/03/31 09:45:22;;;;;;;13.65;3.60;;;;;;;9.22;100.00;98824.97;5010881;28;20046;-86
2023/03/31 09:47:52;;;;;;;12.43;3.20;;;;;;;9.07;100.00;98842.44;5012671;28;20050;-86
2023/03/31 09:50:21;;;;;;;12.35;2.42;;;;;;;9.24;100.00;98857.91;5010163;28;20056;-87
2023/03/31 09:53:04;;;;;;;15.77;3.55;;;;;;;9.30;100.00;98843.63;5018135;28;20049;-88
2023/03/31 09:55:44;;;;;;;25.27;5.50;;;;;;;9.20;100.00;98843.34;5005928;28;20074;-88
2023/03/31 09:58:14;;;;;;;11.02;2.50;;;;;;;9.49;100.00;98880.72;4998982;28;20500;-87
2023/03/31 10:00:56;;;;;;;14.73;3.28;;;;;;;9.28;100.00;98874.22;5008891;28;20539;-88
2023/03/31 10:03:23;;;;;;;13.57;2.92;;;;;;;9.47;100.00;98879.97;5012014;28;20566;-88
2023/03/31 10:05:53;;;;;;;12.50;4.55;;;;;;;8.95;100.00;98851.84;5009329;28;20042;-87
2023/03/31 10:09:00;;;;;;;17.27;3.75;;;;;;;9.07;100.00;98874.59;5008513;28;20385;-86
2023/03/31 10:11:27;;;;;;;16.67;3.78;;;;;;;8.74;100.00;98880.09;5003042;28;20454;-87
2023/03/31 10:14:12;;;;;;;18.27;3.28;;;;;;;9.10;100.00;98887.47;5010899;28;20056;-87
2023/03/31 10:16:46;;;;;;;13.40;3.08;;;;;;;9.46;100.00;98907.03;5012215;28;20070;-87
2023/03/31 10:19:36;;;;;;;18.48;3.20;;;;;;;9.22;100.00;98903.31;5005678;28;20054;-87
2023/03/31 10:22:14;;;;;;;11.80;3.38;;;;;;;8.89;100.00;98918.31;5009250;28;20411;-87
2023/03/31 10:24:44;;;;;;;10.73;3.33;;;;;;;9.03;100.00;98921.84;5010887;28;20042;-88
2023/03/31 10:27:28;;;;;;;19.33;3.30;;;;;;;8.94;100.00;98902.38;5008868;28;20045;-87
2023/03/31 10:29:57;;;;;;;14.30;3.55;;;;;;;9.02;100.00;98922.81;4999999;28;20481;-87
2023/03/31 10:32:27;;;;;;;15.38;3.67;;;;;;;8.97;100.00;98903.97;5010386;28;20056;-88
2023/03/31 10:34:56;;;;;;;17.27;3.65;;;;;;;9.05;100.00;98939.13;5010116;28;20054;-88
2023/03/31 10:37:27;;;;;;;16.67;3.13;;;;;;;8.98;100.00;98926.50;4999876;28;20116;-89
2023/03/31 10:40:00;;;;;;;13.80;3.85;;;;;;;8.88;100.00;98926.25;5008973;28;20050;-88
2023/03/31 10:42:27;;;;;;;;;;;;;;;8.99;100.00;98952.53;5001011;28;20054;-87
2023/03/31 10:45:33;;;;;;;14.20;3.70;;;;;;;9.03;100.00;98950.56;5002603;28;19922;-89
2023/03/31 10:48:04;;;;;;;22.08;4.65;;;;;;;9.18;100.00;98956.66;5000889;28;20096;-87
2023/03/31 10:50:34;;;;;;;18.67;4.20;;;;;;;9.26;100.00;98957.03;5011553;28;20108;-89
2023/03/31 10:53:09;;;;;;;20.30;4.85;;;;;;;9.28;100.00;98961.25;5000175;28;20058;-89
2023/03/31 10:56:12;;;;;;;12.88;3.47;;;;;;;9.27;100.00;98958.72;5010657;28;20042;-88
2023/03/31 10:59:14;;;;;;;28.10;5.03;;;;;;;9.34;100.00;98960.03;4991925;28;20058;-88
2023/03/31 11:01:41;;;;;;;16.30;3.55;;;;;;;9.18;100.00;98964.50;4988368;28;20051;-88
2023/03/31 11:04:40;;;;;;;16.55;3.30;;;;;;;9.18;100.00;98964.50;5010384;28;20056;-88
2023/03/31 11:07:44;;;;;;;15.40;4.80;;;;;;;9.34;100.00;98973.09;5006114;28;20046;-89
2023/03/31 11:10:32;;;;;;;17.42;4.60;;;;;;;9.37;100.00;98979.91;5004015;28;20526;-88
2023/03/31 11:13:15;;;;;;;22.85;3.50;;;;;;;9.03;100.00;98959.28;5007671;28;20105;-89
2023/03/31 11:16:07;;;;;;;16.67;3.80;;;;;;;9.13;100.00;98980.44;4994191;28;20074;-89
2023/03/31 11:18:54;;;;;;;12.05;2.92;;;;;;;9.11;100.00;98969.25;5003225;28;20352;-89
2023/03/31 11:21:46;;;;;;;18.50;3.00;;;;;;;9.29;100.00;98989.00;5009078;28;20056;-89
2023/03/31 11:24:39;;;;;;;16.58;2.92;;;;;;;9.25;100.00;98984.91;5013640;28;20447;-89
2023/03/31 11:27:15;;;;;;;10.23;3.05;;;;;;;9.19;100.00;98992.28;5017369;28;20050;-89
2023/03/31 11:29:42;;;;;;;14.93;2.58;;;;;;;9.17;100.00;98978.47;5013585;28;20092;-89
2023/03/31 11:32:27;;;;;;;15.65;3.53;;;;;;;9.41;100.00;98989.22;5008476;28;20098;-89
2023/03/31 11:35:36;;;;;;;16.10;3.03;;;;;;;9.45;100.00;98999.38;5013272;28;20051;-89
2023/03/31 11:38:14;;;;;;;20.13;3.38;;;;;;;9.16;100.00;99010.75;4993592;28;20053;-89
2023/03/31 11:40:53;;;;;;;13.57;3.15;;;;;;;9.32;100.00;99014.13;4999772;28;20061;-88
2023/03/31 11:43:42;;;;;;;12.32;3.20;;;;;;;9.34;100.00;99016.66;4996641;28;20109;-89
2023/03/31 11:46:21;;;;;;;11.02;2.95;;;;;;;9.25;100.00;99011.03;5023915;28;20113;-87
2023/03/31 11:48:56;;;;;;;11.60;2.40;;;;;;;9.33;100.00;99023.66;5016716;28;20050;-88